sensor_id;sensor_type;location;lat;lon;timestamp;P1;durP1;ratioP1;P2;durP2;ratioP2
53309;SDS011;39197;53.200;5.792;2024-01-10T00:02:20;9.52;;;7.05;;
53309;SDS011;39197;53.200;5.792;2024-01-10T00:04:46;14.63;;;8.73;;
53309;SDS011;39197;53.200;5.792;2024-01-10T00:07:12;13.38;;;8.18;;
53309;SDS011;39197;53.200;5.792;2024-01-10T00:09:37;13.98;;;8.82;;
53309;SDS011;39197;53.200;5.792;2024-01-10T00:12:03;11.15;;;8.00;;
53309;SDS011;39197;53.200;5.792;2024-01-10T00:14:28;13.68;;;9.38;;
53309;SDS011;39197;53.200;5.792;2024-01-10T00:16:54;13.82;;;8.80;;
53309;SDS011;39197;53.200;5.792;2024-01-10T00:19:20;11.55;;;8.68;;
53309;SDS011;39197;53.200;5.792;2024-01-10T00:21:45;14.88;;;9.55;;
53309;SDS011;39197;53.200;5.792;2024-01-10T00:24:11;14.75;;;10.38;;
53309;SDS011;39197;53.200;5.792;2024-01-10T00:26:37;18.48;;;10.77;;
53309;SDS011;39197;53.200;5.792;2024-01-10T00:29:02;13.05;;;9.45;;
53309;SDS011;39197;53.200;5.792;2024-01-10T00:31:28;14.20;;;10.38;;
53309;SDS011;39197;53.200;5.792;2024-01-10T00:33:53;14.68;;;11.30;;
53309;SDS011;39197;53.200;5.792;2024-01-10T00:36:19;14.82;;;10.18;;
53309;SDS011;39197;53.200;5.792;2024-01-10T00:38:44;13.30;;;9.57;;
53309;SDS011;39197;53.200;5.792;2024-01-10T00:41:10;14.10;;;9.98;;
53309;SDS011;39197;53.200;5.792;2024-01-10T00:43:37;14.68;;;9.57;;
53309;SDS011;39197;53.200;5.792;2024-01-10T00:46:03;14.45;;;9.88;;
53309;SDS011;39197;53.200;5.792;2024-01-10T00:48:28;13.82;;;9.82;;
53309;SDS011;39197;53.200;5.792;2024-01-10T00:50:54;14.85;;;11.32;;
53309;SDS011;39197;53.200;5.792;2024-01-10T00:53:19;14.25;;;9.63;;
53309;SDS011;39197;53.200;5.792;2024-01-10T00:55:45;15.95;;;11.20;;
53309;SDS011;39197;53.200;5.792;2024-01-10T00:58:10;13.85;;;10.30;;
53309;SDS011;39197;53.200;5.792;2024-01-10T01:00:36;19.73;;;11.93;;
53309;SDS011;39197;53.200;5.792;2024-01-10T01:03:01;15.60;;;11.50;;
53309;SDS011;39197;53.200;5.792;2024-01-10T01:05:27;17.38;;;11.73;;
53309;SDS011;39197;53.200;5.792;2024-01-10T01:07:53;17.20;;;10.63;;
53309;SDS011;39197;53.200;5.792;2024-01-10T01:10:18;16.70;;;12.02;;
53309;SDS011;39197;53.200;5.792;2024-01-10T01:12:44;21.65;;;12.98;;
53309;SDS011;39197;53.200;5.792;2024-01-10T01:15:10;16.98;;;12.25;;
53309;SDS011;39197;53.200;5.792;2024-01-10T01:17:35;19.55;;;13.43;;
53309;SDS011;39197;53.200;5.792;2024-01-10T01:20:01;17.33;;;12.25;;
53309;SDS011;39197;53.200;5.792;2024-01-10T01:22:29;20.10;;;13.55;;
53309;SDS011;39197;53.200;5.792;2024-01-10T01:24:56;16.55;;;12.30;;
53309;SDS011;39197;53.200;5.792;2024-01-10T01:27:22;16.30;;;11.63;;
53309;SDS011;39197;53.200;5.792;2024-01-10T01:29:48;18.50;;;14.27;;
53309;SDS011;39197;53.200;5.792;2024-01-10T01:32:14;20.25;;;13.70;;
53309;SDS011;39197;53.200;5.792;2024-01-10T01:34:39;19.40;;;13.32;;
53309;SDS011;39197;53.200;5.792;2024-01-10T01:37:05;19.45;;;12.45;;
53309;SDS011;39197;53.200;5.792;2024-01-10T01:39:30;18.73;;;12.85;;
53309;SDS011;39197;53.200;5.792;2024-01-10T01:41:56;17.48;;;12.20;;
53309;SDS011;39197;53.200;5.792;2024-01-10T01:44:22;18.15;;;13.07;;
53309;SDS011;39197;53.200;5.792;2024-01-10T01:46:47;20.65;;;14.13;;
53309;SDS011;39197;53.200;5.792;2024-01-10T01:49:14;22.40;;;13.98;;
53309;SDS011;39197;53.200;5.792;2024-01-10T01:51:40;18.20;;;13.10;;
53309;SDS011;39197;53.200;5.792;2024-01-10T01:54:07;22.75;;;14.77;;
53309;SDS011;39197;53.200;5.792;2024-01-10T01:56:33;21.67;;;16.38;;
53309;SDS011;39197;53.200;5.792;2024-01-10T01:59:06;22.92;;;17.33;;
53309;SDS011;39197;53.200;5.792;2024-01-10T02:01:33;28.33;;;16.27;;
53309;SDS011;39197;53.200;5.792;2024-01-10T02:04:00;23.35;;;16.67;;
53309;SDS011;39197;53.200;5.792;2024-01-10T02:06:26;25.38;;;17.70;;
53309;SDS011;39197;53.200;5.792;2024-01-10T02:08:52;27.92;;;18.80;;
53309;SDS011;39197;53.200;5.792;2024-01-10T02:11:18;25.27;;;17.27;;
53309;SDS011;39197;53.200;5.792;2024-01-10T02:13:45;26.55;;;17.70;;
53309;SDS011;39197;53.200;5.792;2024-01-10T02:16:11;22.33;;;15.88;;
53309;SDS011;39197;53.200;5.792;2024-01-10T02:18:37;26.02;;;17.23;;
53309;SDS011;39197;53.200;5.792;2024-01-10T02:21:03;29.65;;;17.90;;
53309;SDS011;39197;53.200;5.792;2024-01-10T02:23:29;26.23;;;17.95;;
53309;SDS011;39197;53.200;5.792;2024-01-10T02:25:54;26.35;;;18.42;;
53309;SDS011;39197;53.200;5.792;2024-01-10T02:28:20;28.65;;;18.92;;
53309;SDS011;39197;53.200;5.792;2024-01-10T02:30:48;26.52;;;17.90;;
53309;SDS011;39197;53.200;5.792;2024-01-10T02:33:14;27.88;;;19.00;;
53309;SDS011;39197;53.200;5.792;2024-01-10T02:35:40;23.58;;;18.10;;
53309;SDS011;39197;53.200;5.792;2024-01-10T02:38:06;25.23;;;17.55;;
53309;SDS011;39197;53.200;5.792;2024-01-10T02:40:31;23.35;;;16.67;;
53309;SDS011;39197;53.200;5.792;2024-01-10T02:42:57;24.70;;;17.25;;
53309;SDS011;39197;53.200;5.792;2024-01-10T02:45:22;26.58;;;16.08;;
53309;SDS011;39197;53.200;5.792;2024-01-10T02:47:48;24.42;;;16.95;;
53309;SDS011;39197;53.200;5.792;2024-01-10T02:50:13;23.70;;;16.50;;
53309;SDS011;39197;53.200;5.792;2024-01-10T02:52:39;20.98;;;15.75;;
53309;SDS011;39197;53.200;5.792;2024-01-10T02:55:04;24.65;;;15.65;;
53309;SDS011;39197;53.200;5.792;2024-01-10T02:57:31;21.02;;;15.70;;
53309;SDS011;39197;53.200;5.792;2024-01-10T02:59:57;24.70;;;16.70;;
53309;SDS011;39197;53.200;5.792;2024-01-10T03:02:22;23.73;;;16.30;;
53309;SDS011;39197;53.200;5.792;2024-01-10T03:04:48;23.02;;;16.63;;
53309;SDS011;39197;53.200;5.792;2024-01-10T03:07:14;22.58;;;15.30;;
53309;SDS011;39197;53.200;5.792;2024-01-10T03:09:39;21.58;;;16.23;;
53309;SDS011;39197;53.200;5.792;2024-01-10T03:12:05;21.65;;;15.82;;
53309;SDS011;39197;53.200;5.792;2024-01-10T03:14:32;21.52;;;14.43;;
53309;SDS011;39197;53.200;5.792;2024-01-10T03:16:58;21.27;;;15.93;;
53309;SDS011;39197;53.200;5.792;2024-01-10T03:19:24;22.50;;;15.93;;
53309;SDS011;39197;53.200;5.792;2024-01-10T03:21:49;20.70;;;15.75;;
53309;SDS011;39197;53.200;5.792;2024-01-10T03:24:15;21.63;;;15.43;;
53309;SDS011;39197;53.200;5.792;2024-01-10T03:26:41;22.05;;;15.90;;
53309;SDS011;39197;53.200;5.792;2024-01-10T03:29:08;21.42;;;15.60;;
53309;SDS011;39197;53.200;5.792;2024-01-10T03:31:33;20.95;;;15.73;;
53309;SDS011;39197;53.200;5.792;2024-01-10T03:33:59;18.48;;;14.52;;
53309;SDS011;39197;53.200;5.792;2024-01-10T03:36:25;20.50;;;15.68;;
53309;SDS011;39197;53.200;5.792;2024-01-10T03:38:50;21.10;;;15.13;;
53309;SDS011;39197;53.200;5.792;2024-01-10T03:41:16;22.27;;;15.75;;
53309;SDS011;39197;53.200;5.792;2024-01-10T03:43:43;25.50;;;16.30;;
53309;SDS011;39197;53.200;5.792;2024-01-10T03:46:09;25.98;;;17.48;;
53309;SDS011;39197;53.200;5.792;2024-01-10T03:48:35;25.65;;;17.48;;
53309;SDS011;39197;53.200;5.792;2024-01-10T03:51:02;25.48;;;18.13;;
53309;SDS011;39197;53.200;5.792;2024-01-10T03:53:28;23.73;;;17.42;;
53309;SDS011;39197;53.200;5.792;2024-01-10T03:55:54;27.63;;;18.63;;
53309;SDS011;39197;53.200;5.792;2024-01-10T03:58:20;23.95;;;16.75;;
53309;SDS011;39197;53.200;5.792;2024-01-10T04:00:45;24.63;;;17.90;;
53309;SDS011;39197;53.200;5.792;2024-01-10T04:03:11;25.27;;;18.33;;
53309;SDS011;39197;53.200;5.792;2024-01-10T04:05:36;25.67;;;17.13;;
53309;SDS011;39197;53.200;5.792;2024-01-10T04:08:02;22.08;;;16.17;;
53309;SDS011;39197;53.200;5.792;2024-01-10T04:10:28;25.90;;;17.60;;
53309;SDS011;39197;53.200;5.792;2024-01-10T04:12:54;22.33;;;15.63;;
53309;SDS011;39197;53.200;5.792;2024-01-10T04:15:20;24.40;;;15.35;;
53309;SDS011;39197;53.200;5.792;2024-01-10T04:17:45;23.23;;;15.95;;
53309;SDS011;39197;53.200;5.792;2024-01-10T04:20:11;20.80;;;15.15;;
53309;SDS011;39197;53.200;5.792;2024-01-10T04:22:36;22.27;;;16.65;;
53309;SDS011;39197;53.200;5.792;2024-01-10T04:25:05;22.40;;;15.38;;
53309;SDS011;39197;53.200;5.792;2024-01-10T04:27:32;22.90;;;15.07;;
53309;SDS011;39197;53.200;5.792;2024-01-10T04:29:57;21.38;;;14.40;;
53309;SDS011;39197;53.200;5.792;2024-01-10T04:32:23;19.52;;;13.57;;
53309;SDS011;39197;53.200;5.792;2024-01-10T04:34:48;17.48;;;12.63;;
53309;SDS011;39197;53.200;5.792;2024-01-10T04:37:15;17.05;;;12.00;;
53309;SDS011;39197;53.200;5.792;2024-01-10T04:39:40;18.55;;;13.85;;
53309;SDS011;39197;53.200;5.792;2024-01-10T04:42:07;19.23;;;13.77;;
53309;SDS011;39197;53.200;5.792;2024-01-10T04:44:34;17.67;;;12.80;;
53309;SDS011;39197;53.200;5.792;2024-01-10T04:46:59;18.95;;;12.40;;
53309;SDS011;39197;53.200;5.792;2024-01-10T04:49:25;17.52;;;11.73;;
53309;SDS011;39197;53.200;5.792;2024-01-10T04:51:50;17.42;;;12.93;;
53309;SDS011;39197;53.200;5.792;2024-01-10T04:54:16;18.35;;;12.15;;
53309;SDS011;39197;53.200;5.792;2024-01-10T04:56:42;16.60;;;11.32;;
53309;SDS011;39197;53.200;5.792;2024-01-10T04:59:08;15.00;;;11.90;;
53309;SDS011;39197;53.200;5.792;2024-01-10T05:01:33;16.88;;;11.82;;
53309;SDS011;39197;53.200;5.792;2024-01-10T05:03:59;18.25;;;11.80;;
53309;SDS011;39197;53.200;5.792;2024-01-10T05:06:25;17.60;;;11.15;;
53309;SDS011;39197;53.200;5.792;2024-01-10T05:08:50;18.98;;;11.93;;
53309;SDS011;39197;53.200;5.792;2024-01-10T05:11:16;19.05;;;11.73;;
53309;SDS011;39197;53.200;5.792;2024-01-10T05:13:42;19.35;;;12.73;;
53309;SDS011;39197;53.200;5.792;2024-01-10T05:16:08;20.20;;;12.38;;
53309;SDS011;39197;53.200;5.792;2024-01-10T05:18:34;17.95;;;12.52;;
53309;SDS011;39197;53.200;5.792;2024-01-10T05:21:00;20.98;;;12.38;;
53309;SDS011;39197;53.200;5.792;2024-01-10T05:23:26;19.60;;;13.07;;
53309;SDS011;39197;53.200;5.792;2024-01-10T05:25:53;16.60;;;12.35;;
53309;SDS011;39197;53.200;5.792;2024-01-10T05:28:19;17.65;;;12.80;;
53309;SDS011;39197;53.200;5.792;2024-01-10T05:30:44;15.88;;;11.90;;
53309;SDS011;39197;53.200;5.792;2024-01-10T05:33:10;18.50;;;12.98;;
53309;SDS011;39197;53.200;5.792;2024-01-10T05:35:36;18.05;;;12.32;;
53309;SDS011;39197;53.200;5.792;2024-01-10T05:38:04;16.20;;;11.60;;
53309;SDS011;39197;53.200;5.792;2024-01-10T05:40:30;17.50;;;12.20;;
53309;SDS011;39197;53.200;5.792;2024-01-10T05:43:00;16.92;;;11.77;;
53309;SDS011;39197;53.200;5.792;2024-01-10T05:45:25;17.50;;;12.63;;
53309;SDS011;39197;53.200;5.792;2024-01-10T05:47:51;20.75;;;13.15;;
53309;SDS011;39197;53.200;5.792;2024-01-10T05:50:17;16.15;;;11.40;;
53309;SDS011;39197;53.200;5.792;2024-01-10T05:52:44;18.85;;;12.70;;
53309;SDS011;39197;53.200;5.792;2024-01-10T05:55:10;18.67;;;12.80;;
53309;SDS011;39197;53.200;5.792;2024-01-10T05:57:36;17.17;;;12.27;;
53309;SDS011;39197;53.200;5.792;2024-01-10T06:00:02;17.45;;;12.18;;
53309;SDS011;39197;53.200;5.792;2024-01-10T06:02:29;17.92;;;12.25;;
53309;SDS011;39197;53.200;5.792;2024-01-10T06:04:55;18.48;;;12.45;;
53309;SDS011;39197;53.200;5.792;2024-01-10T06:07:21;20.02;;;12.80;;
53309;SDS011;39197;53.200;5.792;2024-01-10T06:09:47;18.75;;;14.25;;
53309;SDS011;39197;53.200;5.792;2024-01-10T06:12:12;21.08;;;14.45;;
53309;SDS011;39197;53.200;5.792;2024-01-10T06:14:38;18.98;;;14.38;;
53309;SDS011;39197;53.200;5.792;2024-01-10T06:17:04;18.73;;;13.90;;
53309;SDS011;39197;53.200;5.792;2024-01-10T06:19:30;23.45;;;15.48;;
53309;SDS011;39197;53.200;5.792;2024-01-10T06:21:58;20.65;;;14.82;;
53309;SDS011;39197;53.200;5.792;2024-01-10T06:24:24;20.33;;;13.50;;
53309;SDS011;39197;53.200;5.792;2024-01-10T06:26:51;20.13;;;13.77;;
53309;SDS011;39197;53.200;5.792;2024-01-10T06:29:17;21.30;;;14.90;;
53309;SDS011;39197;53.200;5.792;2024-01-10T06:31:43;23.25;;;15.00;;
53309;SDS011;39197;53.200;5.792;2024-01-10T06:34:09;19.65;;;14.32;;
53309;SDS011;39197;53.200;5.792;2024-01-10T06:36:34;18.40;;;13.18;;
53309;SDS011;39197;53.200;5.792;2024-01-10T06:39:00;22.27;;;14.75;;
53309;SDS011;39197;53.200;5.792;2024-01-10T06:41:26;20.10;;;14.48;;
53309;SDS011;39197;53.200;5.792;2024-01-10T06:43:52;22.33;;;16.80;;
53309;SDS011;39197;53.200;5.792;2024-01-10T06:46:18;22.70;;;15.38;;
53309;SDS011;39197;53.200;5.792;2024-01-10T06:48:44;20.35;;;14.00;;
53309;SDS011;39197;53.200;5.792;2024-01-10T06:51:10;21.00;;;15.60;;
53309;SDS011;39197;53.200;5.792;2024-01-10T06:53:39;20.50;;;14.82;;
53309;SDS011;39197;53.200;5.792;2024-01-10T06:56:05;18.20;;;14.38;;
53309;SDS011;39197;53.200;5.792;2024-01-10T06:58:32;23.33;;;15.43;;
53309;SDS011;39197;53.200;5.792;2024-01-10T07:00:58;20.95;;;16.35;;
53309;SDS011;39197;53.200;5.792;2024-01-10T07:03:25;22.15;;;17.02;;
53309;SDS011;39197;53.200;5.792;2024-01-10T07:05:51;25.60;;;16.48;;
53309;SDS011;39197;53.200;5.792;2024-01-10T07:08:17;23.83;;;17.38;;
53309;SDS011;39197;53.200;5.792;2024-01-10T07:10:42;23.02;;;15.88;;
53309;SDS011;39197;53.200;5.792;2024-01-10T07:13:08;22.42;;;15.27;;
53309;SDS011;39197;53.200;5.792;2024-01-10T07:15:33;22.75;;;16.88;;
53309;SDS011;39197;53.200;5.792;2024-01-10T07:17:59;21.25;;;15.45;;
53309;SDS011;39197;53.200;5.792;2024-01-10T07:20:25;19.50;;;15.68;;
53309;SDS011;39197;53.200;5.792;2024-01-10T07:22:50;21.52;;;14.45;;
53309;SDS011;39197;53.200;5.792;2024-01-10T07:25:16;21.70;;;15.40;;
53309;SDS011;39197;53.200;5.792;2024-01-10T07:27:42;20.52;;;15.20;;
53309;SDS011;39197;53.200;5.792;2024-01-10T07:30:11;24.83;;;14.85;;
53309;SDS011;39197;53.200;5.792;2024-01-10T07:32:43;23.05;;;15.93;;
53309;SDS011;39197;53.200;5.792;2024-01-10T07:35:09;22.38;;;14.18;;
53309;SDS011;39197;53.200;5.792;2024-01-10T07:37:37;21.52;;;15.95;;
53309;SDS011;39197;53.200;5.792;2024-01-10T07:40:04;20.65;;;14.70;;
53309;SDS011;39197;53.200;5.792;2024-01-10T07:42:32;19.65;;;15.02;;
53309;SDS011;39197;53.200;5.792;2024-01-10T07:44:58;17.40;;;11.88;;
53309;SDS011;39197;53.200;5.792;2024-01-10T07:47:24;23.95;;;14.50;;
53309;SDS011;39197;53.200;5.792;2024-01-10T07:49:50;18.75;;;14.02;;
53309;SDS011;39197;53.200;5.792;2024-01-10T07:52:16;18.58;;;13.27;;
53309;SDS011;39197;53.200;5.792;2024-01-10T07:54:42;20.70;;;13.20;;
53309;SDS011;39197;53.200;5.792;2024-01-10T07:57:07;20.33;;;14.55;;
53309;SDS011;39197;53.200;5.792;2024-01-10T07:59:33;19.92;;;13.15;;
53309;SDS011;39197;53.200;5.792;2024-01-10T08:02:00;21.88;;;13.80;;
53309;SDS011;39197;53.200;5.792;2024-01-10T08:04:26;24.75;;;13.43;;
53309;SDS011;39197;53.200;5.792;2024-01-10T08:06:52;18.58;;;14.07;;
53309;SDS011;39197;53.200;5.792;2024-01-10T08:09:18;21.83;;;13.35;;
53309;SDS011;39197;53.200;5.792;2024-01-10T08:11:44;21.80;;;14.43;;
53309;SDS011;39197;53.200;5.792;2024-01-10T08:14:10;16.58;;;13.48;;
53309;SDS011;39197;53.200;5.792;2024-01-10T08:16:36;20.50;;;15.15;;
53309;SDS011;39197;53.200;5.792;2024-01-10T08:19:02;23.15;;;16.02;;
53309;SDS011;39197;53.200;5.792;2024-01-10T08:21:27;21.05;;;15.18;;
53309;SDS011;39197;53.200;5.792;2024-01-10T08:23:53;20.65;;;15.30;;
53309;SDS011;39197;53.200;5.792;2024-01-10T08:26:18;19.55;;;14.05;;
53309;SDS011;39197;53.200;5.792;2024-01-10T08:28:44;20.23;;;14.27;;
53309;SDS011;39197;53.200;5.792;2024-01-10T08:31:09;19.92;;;14.05;;
53309;SDS011;39197;53.200;5.792;2024-01-10T08:33:35;18.25;;;14.15;;
53309;SDS011;39197;53.200;5.792;2024-01-10T08:36:01;19.52;;;13.25;;
53309;SDS011;39197;53.200;5.792;2024-01-10T08:38:27;18.88;;;13.45;;
53309;SDS011;39197;53.200;5.792;2024-01-10T08:40:52;17.98;;;13.80;;
53309;SDS011;39197;53.200;5.792;2024-01-10T08:43:19;16.50;;;12.80;;
53309;SDS011;39197;53.200;5.792;2024-01-10T08:45:44;15.90;;;10.32;;
53309;SDS011;39197;53.200;5.792;2024-01-10T08:48:10;17.40;;;12.57;;
53309;SDS011;39197;53.200;5.792;2024-01-10T08:50:38;17.38;;;11.05;;
53309;SDS011;39197;53.200;5.792;2024-01-10T08:53:03;14.90;;;10.73;;
53309;SDS011;39197;53.200;5.792;2024-01-10T08:55:31;15.93;;;11.25;;
53309;SDS011;39197;53.200;5.792;2024-01-10T08:57:57;14.82;;;9.98;;
53309;SDS011;39197;53.200;5.792;2024-01-10T09:00:22;16.23;;;11.60;;
53309;SDS011;39197;53.200;5.792;2024-01-10T09:02:49;16.55;;;11.40;;
53309;SDS011;39197;53.200;5.792;2024-01-10T09:05:15;14.40;;;9.73;;
53309;SDS011;39197;53.200;5.792;2024-01-10T09:07:41;12.93;;;9.85;;
53309;SDS011;39197;53.200;5.792;2024-01-10T09:10:07;16.52;;;10.80;;
53309;SDS011;39197;53.200;5.792;2024-01-10T09:12:33;14.82;;;10.73;;
53309;SDS011;39197;53.200;5.792;2024-01-10T09:15:00;15.70;;;9.88;;
53309;SDS011;39197;53.200;5.792;2024-01-10T09:17:27;13.02;;;9.63;;
53309;SDS011;39197;53.200;5.792;2024-01-10T09:19:53;15.63;;;10.43;;
53309;SDS011;39197;53.200;5.792;2024-01-10T09:22:19;14.73;;;10.02;;
53309;SDS011;39197;53.200;5.792;2024-01-10T09:24:44;14.95;;;10.20;;
53309;SDS011;39197;53.200;5.792;2024-01-10T09:27:10;13.32;;;9.27;;
53309;SDS011;39197;53.200;5.792;2024-01-10T09:29:36;14.02;;;10.45;;
53309;SDS011;39197;53.200;5.792;2024-01-10T09:32:01;12.07;;;8.60;;
53309;SDS011;39197;53.200;5.792;2024-01-10T09:34:27;14.70;;;8.90;;
53309;SDS011;39197;53.200;5.792;2024-01-10T09:36:53;14.52;;;9.80;;
53309;SDS011;39197;53.200;5.792;2024-01-10T09:39:19;12.57;;;9.10;;
53309;SDS011;39197;53.200;5.792;2024-01-10T09:41:48;17.70;;;9.90;;
53309;SDS011;39197;53.200;5.792;2024-01-10T09:44:15;15.60;;;9.75;;
53309;SDS011;39197;53.200;5.792;2024-01-10T09:46:46;13.57;;;8.90;;
53309;SDS011;39197;53.200;5.792;2024-01-10T09:49:16;12.75;;;9.18;;
53309;SDS011;39197;53.200;5.792;2024-01-10T09:51:42;16.40;;;9.68;;
53309;SDS011;39197;53.200;5.792;2024-01-10T09:54:08;14.60;;;10.18;;
53309;SDS011;39197;53.200;5.792;2024-01-10T09:56:33;12.90;;;8.80;;
53309;SDS011;39197;53.200;5.792;2024-01-10T09:59:00;13.57;;;9.43;;
53309;SDS011;39197;53.200;5.792;2024-01-10T10:01:29;13.82;;;9.60;;
53309;SDS011;39197;53.200;5.792;2024-01-10T10:03:56;13.98;;;9.43;;
53309;SDS011;39197;53.200;5.792;2024-01-10T10:06:22;14.77;;;9.18;;
53309;SDS011;39197;53.200;5.792;2024-01-10T10:08:48;13.93;;;9.32;;
53309;SDS011;39197;53.200;5.792;2024-01-10T10:11:14;11.40;;;8.85;;
53309;SDS011;39197;53.200;5.792;2024-01-10T10:13:40;12.68;;;8.52;;
53309;SDS011;39197;53.200;5.792;2024-01-10T10:16:07;12.20;;;8.88;;
53309;SDS011;39197;53.200;5.792;2024-01-10T10:18:35;13.60;;;8.48;;
53309;SDS011;39197;53.200;5.792;2024-01-10T10:21:10;12.73;;;9.00;;
53309;SDS011;39197;53.200;5.792;2024-01-10T10:23:38;12.70;;;8.35;;
53309;SDS011;39197;53.200;5.792;2024-01-10T10:26:15;12.73;;;8.57;;
53309;SDS011;39197;53.200;5.792;2024-01-10T10:28:45;13.98;;;9.07;;
53309;SDS011;39197;53.200;5.792;2024-01-10T10:31:12;14.88;;;9.88;;
53309;SDS011;39197;53.200;5.792;2024-01-10T10:33:38;10.70;;;7.85;;
53309;SDS011;39197;53.200;5.792;2024-01-10T10:36:04;11.30;;;7.78;;
53309;SDS011;39197;53.200;5.792;2024-01-10T10:38:31;11.45;;;8.25;;
53309;SDS011;39197;53.200;5.792;2024-01-10T10:40:57;12.98;;;8.13;;
53309;SDS011;39197;53.200;5.792;2024-01-10T10:43:24;10.80;;;7.30;;
53309;SDS011;39197;53.200;5.792;2024-01-10T10:45:51;11.82;;;7.72;;
53309;SDS011;39197;53.200;5.792;2024-01-10T10:48:19;12.05;;;8.18;;
53309;SDS011;39197;53.200;5.792;2024-01-10T10:51:28;14.88;;;9.07;;
53309;SDS011;39197;53.200;5.792;2024-01-10T10:53:40;14.52;;;8.65;;
53309;SDS011;39197;53.200;5.792;2024-01-10T10:56:10;10.55;;;8.00;;
53309;SDS011;39197;53.200;5.792;2024-01-10T10:58:42;10.98;;;7.93;;
53309;SDS011;39197;53.200;5.792;2024-01-10T11:01:12;10.80;;;7.75;;
53309;SDS011;39197;53.200;5.792;2024-01-10T11:03:39;13.18;;;8.43;;
53309;SDS011;39197;53.200;5.792;2024-01-10T11:06:06;12.75;;;8.65;;
53309;SDS011;39197;53.200;5.792;2024-01-10T11:08:52;12.55;;;8.20;;
53309;SDS011;39197;53.200;5.792;2024-01-10T11:17:26;13.13;;;9.32;;
53309;SDS011;39197;53.200;5.792;2024-01-10T11:22:48;12.87;;;8.63;;
53309;SDS011;39197;53.200;5.792;2024-01-10T11:25:26;11.98;;;8.65;;
53309;SDS011;39197;53.200;5.792;2024-01-10T11:27:54;15.20;;;8.57;;
53309;SDS011;39197;53.200;5.792;2024-01-10T11:30:48;15.10;;;8.70;;
53309;SDS011;39197;53.200;5.792;2024-01-10T11:38:49;10.52;;;8.23;;
53309;SDS011;39197;53.200;5.792;2024-01-10T11:41:25;10.63;;;7.93;;
53309;SDS011;39197;53.200;5.792;2024-01-10T11:47:08;11.60;;;8.13;;
53309;SDS011;39197;53.200;5.792;2024-01-10T11:49:29;14.32;;;9.75;;
53309;SDS011;39197;53.200;5.792;2024-01-10T11:51:56;14.07;;;9.65;;
53309;SDS011;39197;53.200;5.792;2024-01-10T11:54:35;11.10;;;7.68;;
53309;SDS011;39197;53.200;5.792;2024-01-10T11:57:13;10.70;;;8.45;;
53309;SDS011;39197;53.200;5.792;2024-01-10T11:59:42;11.80;;;8.48;;
53309;SDS011;39197;53.200;5.792;2024-01-10T12:02:11;13.80;;;9.52;;
53309;SDS011;39197;53.200;5.792;2024-01-10T12:04:40;12.73;;;7.50;;
53309;SDS011;39197;53.200;5.792;2024-01-10T12:07:06;12.98;;;7.95;;
53309;SDS011;39197;53.200;5.792;2024-01-10T12:09:33;10.77;;;7.85;;
53309;SDS011;39197;53.200;5.792;2024-01-10T12:12:00;11.45;;;7.55;;
53309;SDS011;39197;53.200;5.792;2024-01-10T12:14:26;11.82;;;8.20;;
53309;SDS011;39197;53.200;5.792;2024-01-10T12:16:52;9.77;;;7.20;;
53309;SDS011;39197;53.200;5.792;2024-01-10T12:19:18;11.07;;;8.27;;
53309;SDS011;39197;53.200;5.792;2024-01-10T12:21:44;14.57;;;8.82;;
53309;SDS011;39197;53.200;5.792;2024-01-10T12:24:09;10.80;;;7.28;;
53309;SDS011;39197;53.200;5.792;2024-01-10T12:26:35;12.10;;;7.25;;
53309;SDS011;39197;53.200;5.792;2024-01-10T12:29:03;12.13;;;6.75;;
53309;SDS011;39197;53.200;5.792;2024-01-10T12:31:31;10.00;;;6.97;;
53309;SDS011;39197;53.200;5.792;2024-01-10T12:34:00;11.90;;;7.43;;
53309;SDS011;39197;53.200;5.792;2024-01-10T12:36:25;10.45;;;7.70;;
53309;SDS011;39197;53.200;5.792;2024-01-10T12:38:51;12.05;;;8.38;;
53309;SDS011;39197;53.200;5.792;2024-01-10T12:41:17;10.20;;;6.97;;
53309;SDS011;39197;53.200;5.792;2024-01-10T12:43:48;13.43;;;9.05;;
53309;SDS011;39197;53.200;5.792;2024-01-10T12:46:15;16.58;;;9.18;;
53309;SDS011;39197;53.200;5.792;2024-01-10T12:48:41;11.45;;;7.68;;
53309;SDS011;39197;53.200;5.792;2024-01-10T12:51:07;12.25;;;8.18;;
53309;SDS011;39197;53.200;5.792;2024-01-10T12:53:34;15.65;;;10.20;;
53309;SDS011;39197;53.200;5.792;2024-01-10T12:56:01;12.70;;;7.00;;
53309;SDS011;39197;53.200;5.792;2024-01-10T12:58:31;11.13;;;7.63;;
53309;SDS011;39197;53.200;5.792;2024-01-10T13:00:57;14.15;;;8.45;;
53309;SDS011;39197;53.200;5.792;2024-01-10T13:03:23;12.65;;;7.60;;
53309;SDS011;39197;53.200;5.792;2024-01-10T13:05:49;11.00;;;7.75;;
53309;SDS011;39197;53.200;5.792;2024-01-10T13:08:15;12.20;;;7.90;;
53309;SDS011;39197;53.200;5.792;2024-01-10T13:10:41;15.32;;;8.98;;
53309;SDS011;39197;53.200;5.792;2024-01-10T13:13:07;11.52;;;7.90;;
53309;SDS011;39197;53.200;5.792;2024-01-10T13:15:33;19.45;;;7.75;;
53309;SDS011;39197;53.200;5.792;2024-01-10T13:17:59;14.18;;;8.18;;
53309;SDS011;39197;53.200;5.792;2024-01-10T13:20:25;13.27;;;8.05;;
53309;SDS011;39197;53.200;5.792;2024-01-10T13:22:51;14.27;;;8.40;;
53309;SDS011;39197;53.200;5.792;2024-01-10T13:25:16;14.77;;;8.13;;
53309;SDS011;39197;53.200;5.792;2024-01-10T13:27:42;12.82;;;7.22;;
53309;SDS011;39197;53.200;5.792;2024-01-10T13:30:08;14.43;;;7.68;;
53309;SDS011;39197;53.200;5.792;2024-01-10T13:32:37;11.43;;;6.65;;
53309;SDS011;39197;53.200;5.792;2024-01-10T13:35:03;12.13;;;7.88;;
53309;SDS011;39197;53.200;5.792;2024-01-10T13:37:29;13.60;;;7.43;;
53309;SDS011;39197;53.200;5.792;2024-01-10T13:39:56;12.13;;;7.55;;
53309;SDS011;39197;53.200;5.792;2024-01-10T13:42:22;11.13;;;7.60;;
53309;SDS011;39197;53.200;5.792;2024-01-10T13:44:48;10.63;;;6.85;;
53309;SDS011;39197;53.200;5.792;2024-01-10T13:47:15;11.35;;;7.53;;
53309;SDS011;39197;53.200;5.792;2024-01-10T13:49:42;11.38;;;8.00;;
53309;SDS011;39197;53.200;5.792;2024-01-10T13:52:08;13.55;;;9.52;;
53309;SDS011;39197;53.200;5.792;2024-01-10T13:54:34;10.85;;;7.63;;
53309;SDS011;39197;53.200;5.792;2024-01-10T13:56:59;13.45;;;7.78;;
53309;SDS011;39197;53.200;5.792;2024-01-10T13:59:25;13.15;;;9.40;;
53309;SDS011;39197;53.200;5.792;2024-01-10T14:01:50;9.20;;;6.28;;
53309;SDS011;39197;53.200;5.792;2024-01-10T14:04:16;11.02;;;7.63;;
53309;SDS011;39197;53.200;5.792;2024-01-10T14:06:42;11.48;;;7.88;;
53309;SDS011;39197;53.200;5.792;2024-01-10T14:09:07;11.90;;;7.43;;
53309;SDS011;39197;53.200;5.792;2024-01-10T14:11:35;11.35;;;7.00;;
53309;SDS011;39197;53.200;5.792;2024-01-10T14:14:00;11.50;;;8.00;;
53309;SDS011;39197;53.200;5.792;2024-01-10T14:16:26;9.95;;;7.20;;
53309;SDS011;39197;53.200;5.792;2024-01-10T14:18:53;10.30;;;6.90;;
53309;SDS011;39197;53.200;5.792;2024-01-10T14:21:21;9.70;;;6.95;;
53309;SDS011;39197;53.200;5.792;2024-01-10T14:23:47;10.80;;;7.15;;
53309;SDS011;39197;53.200;5.792;2024-01-10T14:26:13;10.60;;;6.78;;
53309;SDS011;39197;53.200;5.792;2024-01-10T14:28:40;11.20;;;7.70;;
53309;SDS011;39197;53.200;5.792;2024-01-10T14:31:05;10.88;;;6.85;;
53309;SDS011;39197;53.200;5.792;2024-01-10T14:33:31;12.25;;;6.97;;
53309;SDS011;39197;53.200;5.792;2024-01-10T14:35:58;10.77;;;6.82;;
53309;SDS011;39197;53.200;5.792;2024-01-10T14:38:24;10.13;;;6.68;;
53309;SDS011;39197;53.200;5.792;2024-01-10T14:40:50;11.38;;;7.10;;